Terminal Aerodrome Forecast
Issued by NWS

Home | Current Version | Previous Version | Text Only | Print | Product List | Glossary On
Versions: 1 2 3 4 5 6 7 8 9 10 11 12 13 14 15 16 17 18 19 20 21 22 23 24
000
FTUS41 KBTV 231923 AAA
TAFSLK
TAF AMD
KSLK 231923Z 2319/2418 23007KT 3SM BR OVC015
     FM240200 16006KT P6SM OVC035
     FM240800 14012KT 5SM -RA OVC012
     FM241200 18010KT 5SM BR OVC007=

USA.gov is the U.S. government's official web portal to all federal, state and local government web resources and services.